Time;durP1;ratioP1;P1;durP2;ratioP2;P2;SDS_P1;SDS_P2;PMS_P1;PMS_P2;Temp;Humidity;BMP_temperature;BMP_pressure;BME280_temperature;BME280_humidity;BME280_pressure;Samples;Min_cycle;Max_cycle;Signal;HPM_P1;HPM_P2
2022/03/19 00:01:39;;;;;;;40.57;19.90;;;;;;;;;;5094395;28;20454;-69
2022/03/19 00:04:06;;;;;;;35.40;20.60;;;;;;;;;;5094106;28;20490;-69
2022/03/19 00:06:38;;;;;;;37.77;20.43;;;;;;;;;;5094163;28;20454;-70
2022/03/19 00:09:05;;;;;;;32.87;20.23;;;;;;;;;;5094114;28;20477;-69
2022/03/19 00:11:34;;;;;;;30.87;18.80;;;;;;;;;;5094305;28;20455;-69
2022/03/19 00:14:01;;;;;;;37.70;19.70;;;;;;;;;;5093686;28;20490;-69
2022/03/19 00:16:28;;;;;;;30.27;19.17;;;;;;;;;;5094007;28;20463;-69
2022/03/19 00:18:56;;;;;;;36.27;20.50;;;;;;;;;;5094046;28;20963;-69
2022/03/19 00:21:24;;;;;;;34.63;19.10;;;;;;;;;;5094009;28;20455;-69
2022/03/19 00:23:51;;;;;;;36.77;19.90;;;;;;;;;;5093610;28;20454;-69
2022/03/19 00:26:20;;;;;;;32.63;19.67;;;;;;;;;;5093908;28;20451;-69
2022/03/19 00:28:47;;;;;;;38.40;22.73;;;;;;;;;;5093852;28;20583;-69
2022/03/19 00:31:14;;;;;;;36.90;18.93;;;;;;;;;;5093859;28;20500;-69
2022/03/19 00:33:41;;;;;;;37.93;21.20;;;;;;;;;;5093472;28;20495;-69
2022/03/19 00:36:10;;;;;;;28.87;20.57;;;;;;;;;;5093475;28;20450;-69
2022/03/19 00:38:37;;;;;;;45.30;25.90;;;;;;;;;;5093606;28;20487;-69
2022/03/19 00:41:04;;;;;;;34.30;21.70;;;;;;;;;;5093374;28;21088;-69
2022/03/19 00:43:31;;;;;;;36.03;23.10;;;;;;;;;;5093443;28;20797;-70
2022/03/19 00:45:58;;;;;;;40.77;22.30;;;;;;;;;;5093530;28;20462;-69
2022/03/19 00:48:25;;;;;;;39.07;22.20;;;;;;;;;;5093341;28;20485;-69
2022/03/19 00:50:52;;;;;;;44.20;24.63;;;;;;;;;;5093426;28;20954;-69
2022/03/19 00:53:21;;;;;;;41.50;21.90;;;;;;;;;;5093729;28;20485;-69
2022/03/19 00:55:48;;;;;;;33.87;20.90;;;;;;;;;;5093206;28;20449;-69
2022/03/19 00:58:15;;;;;;;34.77;20.20;;;;;;;;;;5093386;28;20459;-69
2022/03/19 01:00:42;;;;;;;33.13;21.17;;;;;;;;;;5093296;28;20473;-69
2022/03/19 01:03:09;;;;;;;46.43;23.47;;;;;;;;;;5093120;28;20455;-69
2022/03/19 01:05:36;;;;;;;39.77;22.43;;;;;;;;;;5093069;28;20491;-69
2022/03/19 01:08:04;;;;;;;44.87;23.40;;;;;;;;;;5093196;28;20544;-69
2022/03/19 01:10:32;;;;;;;40.50;23.53;;;;;;;;;;5093299;28;20450;-69
2022/03/19 01:13:00;;;;;;;32.67;20.93;;;;;;;;;;5093243;28;20928;-69
2022/03/19 01:15:27;;;;;;;38.50;21.30;;;;;;;;;;5093075;28;20494;-70
2022/03/19 01:17:54;;;;;;;35.23;19.93;;;;;;;;;;5092987;28;20979;-69
2022/03/19 01:20:22;;;;;;;40.70;22.77;;;;;;;;;;5093267;28;20450;-69
2022/03/19 01:22:50;;;;;;;46.63;23.40;;;;;;;;;;5093035;28;20450;-69
2022/03/19 01:25:17;;;;;;;34.70;22.03;;;;;;;;;;5092791;28;20442;-69
2022/03/19 01:27:46;;;;;;;38.63;24.57;;;;;;;;;;5092898;28;20492;-70
2022/03/19 01:30:14;;;;;;;45.10;25.10;;;;;;;;;;5092888;28;20451;-69
2022/03/19 01:32:42;;;;;;;45.63;24.90;;;;;;;;;;5093028;28;20914;-69
2022/03/19 01:35:09;;;;;;;43.40;23.23;;;;;;;;;;5092625;28;20483;-69
2022/03/19 01:37:36;;;;;;;46.20;26.97;;;;;;;;;;5092923;28;20462;-69
2022/03/19 01:40:04;;;;;;;46.00;24.13;;;;;;;;;;5092580;28;20451;-69
2022/03/19 01:42:32;;;;;;;36.07;22.90;;;;;;;;;;5092900;28;20818;-69
2022/03/19 01:45:01;;;;;;;46.87;24.80;;;;;;;;;;5092645;28;20454;-69
2022/03/19 01:47:29;;;;;;;45.20;26.03;;;;;;;;;;5094981;28;20473;-69
2022/03/19 01:49:57;;;;;;;43.00;23.00;;;;;;;;;;5096848;28;20454;-69
2022/03/19 01:52:25;;;;;;;42.43;23.40;;;;;;;;;;5096911;28;21019;-69
2022/03/19 01:54:53;;;;;;;58.17;26.90;;;;;;;;;;5096429;28;20500;-69
2022/03/19 01:57:22;;;;;;;42.93;24.77;;;;;;;;;;5096775;28;20466;-69
2022/03/19 01:59:49;;;;;;;51.03;24.00;;;;;;;;;;5096628;28;20454;-69
2022/03/19 02:02:19;;;;;;;47.40;25.40;;;;;;;;;;5096734;28;20453;-69
2022/03/19 02:04:47;;;;;;;35.87;23.03;;;;;;;;;;5096488;28;20499;-70
2022/03/19 02:07:14;;;;;;;46.80;22.90;;;;;;;;;;5096438;28;20513;-69
2022/03/19 02:09:42;;;;;;;41.40;24.00;;;;;;;;;;5096471;28;20670;-69
2022/03/19 02:12:09;;;;;;;46.10;23.60;;;;;;;;;;5096326;28;20446;-69
2022/03/19 02:14:37;;;;;;;45.93;25.70;;;;;;;;;;5096191;28;20999;-69
2022/03/19 02:17:05;;;;;;;38.50;20.50;;;;;;;;;;5096208;28;21024;-69
2022/03/19 02:19:33;;;;;;;41.23;25.70;;;;;;;;;;5096456;28;20951;-69
2022/03/19 02:22:01;;;;;;;41.50;24.63;;;;;;;;;;5096152;28;20450;-69
2022/03/19 02:27:15;;;;;;;46.20;26.07;;;;;;;;;;5096136;28;20445;-69
2022/03/19 02:29:43;;;;;;;46.70;26.37;;;;;;;;;;5096404;28;20499;-69
2022/03/19 02:32:10;;;;;;;56.53;28.83;;;;;;;;;;5096186;28;20451;-69
2022/03/19 02:34:37;;;;;;;44.67;26.03;;;;;;;;;;5095838;28;20508;-69
2022/03/19 02:37:04;;;;;;;38.23;24.60;;;;;;;;;;5095861;28;20463;-68
2022/03/19 02:39:33;;;;;;;47.47;27.53;;;;;;;;;;5096033;28;20454;-71
2022/03/19 02:42:01;;;;;;;53.17;28.77;;;;;;;;;;5095549;28;20529;-69
2022/03/19 02:44:29;;;;;;;46.67;26.53;;;;;;;;;;5095710;28;20443;-69
2022/03/19 02:46:58;;;;;;;53.93;31.93;;;;;;;;;;5095633;28;20489;-69
2022/03/19 02:49:25;;;;;;;44.40;27.60;;;;;;;;;;5095635;28;20466;-69
2022/03/19 02:51:53;;;;;;;50.60;28.20;;;;;;;;;;5095659;28;20561;-69
2022/03/19 02:54:21;;;;;;;52.00;28.83;;;;;;;;;;5095554;28;20479;-69
2022/03/19 02:56:51;;;;;;;49.20;27.23;;;;;;;;;;5095627;28;20446;-69
2022/03/19 02:59:20;;;;;;;49.73;29.47;;;;;;;;;;5094567;28;20536;-69
2022/03/19 03:01:48;;;;;;;51.00;27.47;;;;;;;;;;5095617;28;20455;-69
2022/03/19 03:04:15;;;;;;;46.93;27.50;;;;;;;;;;5095374;28;20458;-69
2022/03/19 03:06:43;;;;;;;48.83;29.03;;;;;;;;;;5095458;28;20451;-69
2022/03/19 03:09:11;;;;;;;51.17;28.60;;;;;;;;;;5095437;28;20467;-69
2022/03/19 03:11:38;;;;;;;46.27;27.60;;;;;;;;;;5095426;28;20962;-69
2022/03/19 03:14:08;;;;;;;48.83;29.80;;;;;;;;;;5094859;28;20999;-69
2022/03/19 03:16:35;;;;;;;53.80;27.87;;;;;;;;;;5095578;28;20943;-69
2022/03/19 03:19:03;;;;;;;45.03;28.73;;;;;;;;;;5095040;28;20513;-69
2022/03/19 03:21:31;;;;;;;49.33;27.20;;;;;;;;;;5095221;28;20454;-69
2022/03/19 03:23:58;;;;;;;55.20;26.57;;;;;;;;;;5094837;28;20451;-69
2022/03/19 03:26:25;;;;;;;43.20;26.47;;;;;;;;;;5095059;28;20545;-69
2022/03/19 03:28:52;;;;;;;58.90;28.57;;;;;;;;;;5094846;28;20467;-69
2022/03/19 03:31:21;;;;;;;52.80;27.70;;;;;;;;;;5095148;28;20507;-69
2022/03/19 03:33:48;;;;;;;44.43;26.97;;;;;;;;;;5094685;28;20809;-69
2022/03/19 03:36:15;;;;;;;45.30;27.43;;;;;;;;;;5094805;28;20446;-69
2022/03/19 03:38:42;;;;;;;46.27;25.67;;;;;;;;;;5094779;28;20470;-69
2022/03/19 03:41:09;;;;;;;43.27;27.87;;;;;;;;;;5094176;28;20447;-69
2022/03/19 03:43:37;;;;;;;52.07;28.63;;;;;;;;;;5094657;28;20954;-69
2022/03/19 03:46:04;;;;;;;52.27;27.73;;;;;;;;;;5094547;28;20442;-69
2022/03/19 03:48:35;;;;;;;51.10;28.37;;;;;;;;;;5094490;28;20562;-69
2022/03/19 03:51:02;;;;;;;45.27;28.03;;;;;;;;;;5094671;28;20459;-69
2022/03/19 03:53:30;;;;;;;54.27;29.87;;;;;;;;;;5094370;28;20443;-69
2022/03/19 03:55:58;;;;;;;49.10;27.90;;;;;;;;;;5094332;28;21045;-69
2022/03/19 03:58:25;;;;;;;57.07;32.20;;;;;;;;;;5094376;28;20502;-69
2022/03/19 04:00:52;;;;;;;62.37;31.50;;;;;;;;;;5094446;28;20940;-70
2022/03/19 04:03:20;;;;;;;55.57;29.67;;;;;;;;;;5094441;28;20455;-69
2022/03/19 04:05:49;;;;;;;65.63;31.27;;;;;;;;;;5094216;28;20438;-69
2022/03/19 04:08:16;;;;;;;60.30;29.27;;;;;;;;;;5093977;28;20467;-69
2022/03/19 04:10:43;;;;;;;53.27;32.30;;;;;;;;;;5093769;28;20454;-69
2022/03/19 04:13:10;;;;;;;61.03;32.20;;;;;;;;;;5094219;28;20451;-69
2022/03/19 04:15:37;;;;;;;65.20;32.47;;;;;;;;;;5093842;28;20486;-69
2022/03/19 04:18:04;;;;;;;59.90;29.83;;;;;;;;;;5093875;28;20498;-69
2022/03/19 04:20:31;;;;;;;57.30;33.57;;;;;;;;;;5093968;28;20458;-69
2022/03/19 04:23:00;;;;;;;66.70;32.70;;;;;;;;;;5093838;28;20451;-69
2022/03/19 04:25:27;;;;;;;56.97;29.43;;;;;;;;;;5093789;28;20455;-69
2022/03/19 04:27:56;;;;;;;55.80;33.00;;;;;;;;;;5093804;28;20469;-70
2022/03/19 04:30:24;;;;;;;64.67;33.50;;;;;;;;;;5093969;28;20454;-69
2022/03/19 04:32:51;;;;;;;67.47;35.43;;;;;;;;;;5093859;28;20454;-70
2022/03/19 04:38:06;;;;;;;65.70;34.23;;;;;;;;;;5093636;28;20496;-69
2022/03/19 04:40:34;;;;;;;63.27;33.47;;;;;;;;;;5093449;28;20553;-69
2022/03/19 04:43:01;;;;;;;59.37;31.40;;;;;;;;;;5093704;28;20962;-69
2022/03/19 04:45:29;;;;;;;65.50;34.27;;;;;;;;;;5093459;28;20543;-69
2022/03/19 04:47:56;;;;;;;64.60;32.60;;;;;;;;;;5093313;28;20482;-69
2022/03/19 04:50:23;;;;;;;68.13;34.40;;;;;;;;;;5093464;28;20450;-69
2022/03/19 04:52:50;;;;;;;66.00;35.73;;;;;;;;;;5093356;28;20469;-69
2022/03/19 04:55:19;;;;;;;68.77;35.00;;;;;;;;;;5093254;28;20482;-68
2022/03/19 04:57:48;;;;;;;52.10;31.33;;;;;;;;;;5093313;28;20474;-68
2022/03/19 05:00:16;;;;;;;71.70;36.27;;;;;;;;;;5093367;28;20457;-69
2022/03/19 05:02:44;;;;;;;54.37;32.10;;;;;;;;;;5093450;28;20862;-69
2022/03/19 05:05:11;;;;;;;69.23;35.73;;;;;;;;;;5093073;28;20501;-69
2022/03/19 05:07:39;;;;;;;81.37;34.77;;;;;;;;;;5093296;28;20475;-68
2022/03/19 05:12:53;;;;;;;50.80;31.57;;;;;;;;;;5093414;28;20418;-69
2022/03/19 05:15:20;;;;;;;61.73;33.40;;;;;;;;;;5092978;28;20852;-69
2022/03/19 05:17:47;;;;;;;61.93;32.17;;;;;;;;;;5093070;28;20478;-68
2022/03/19 05:20:15;;;;;;;55.90;32.20;;;;;;;;;;5093346;28;20820;-68
2022/03/19 05:22:42;;;;;;;60.37;32.63;;;;;;;;;;5092627;28;20475;-68
2022/03/19 05:25:09;;;;;;;55.23;30.43;;;;;;;;;;5092925;28;20927;-69
2022/03/19 05:27:37;;;;;;;61.33;34.03;;;;;;;;;;5093027;28;20470;-69
2022/03/19 05:30:07;;;;;;;57.20;32.10;;;;;;;;;;5093031;28;20968;-69
2022/03/19 05:32:34;;;;;;;65.33;34.10;;;;;;;;;;5093066;28;20457;-68
2022/03/19 05:35:01;;;;;;;61.17;31.60;;;;;;;;;;5092611;28;20489;-69
2022/03/19 05:37:28;;;;;;;60.07;32.30;;;;;;;;;;5092948;28;20843;-68
2022/03/19 05:39:56;;;;;;;62.47;34.00;;;;;;;;;;5092662;28;20936;-70
2022/03/19 05:42:23;;;;;;;61.30;31.80;;;;;;;;;;5092993;28;20820;-69
2022/03/19 05:44:50;;;;;;;57.07;32.47;;;;;;;;;;5092664;28;20458;-69
2022/03/19 05:47:19;;;;;;;60.20;32.43;;;;;;;;;;5092660;28;20477;-68
2022/03/19 05:49:46;;;;;;;69.73;35.70;;;;;;;;;;5092880;28;20447;-69
2022/03/19 05:52:13;;;;;;;73.63;35.90;;;;;;;;;;5092891;28;20450;-68
2022/03/19 05:54:40;;;;;;;62.87;33.07;;;;;;;;;;5091933;28;20441;-68
2022/03/19 05:57:07;;;;;;;66.90;33.00;;;;;;;;;;5092396;28;20462;-68
2022/03/19 05:59:34;;;;;;;65.43;32.07;;;;;;;;;;5092746;28;20954;-68
2022/03/19 06:02:02;;;;;;;67.50;32.60;;;;;;;;;;5092625;28;20470;-68
2022/03/19 06:04:31;;;;;;;62.23;32.60;;;;;;;;;;5092512;28;20504;-68
2022/03/19 06:06:58;;;;;;;58.40;33.07;;;;;;;;;;5092475;28;20445;-69
2022/03/19 06:09:25;;;;;;;62.77;33.37;;;;;;;;;;5092595;28;20458;-69
2022/03/19 06:11:52;;;;;;;55.40;31.93;;;;;;;;;;5092591;28;20457;-69
2022/03/19 06:14:19;;;;;;;57.73;31.77;;;;;;;;;;5092430;28;20454;-68
2022/03/19 06:16:46;;;;;;;60.27;32.03;;;;;;;;;;5092558;28;20483;-69
2022/03/19 06:19:13;;;;;;;57.00;30.03;;;;;;;;;;5092701;28;20498;-68
2022/03/19 06:21:42;;;;;;;61.33;35.67;;;;;;;;;;5092495;28;20810;-69
2022/03/19 06:24:09;;;;;;;58.40;32.53;;;;;;;;;;5092364;28;20947;-69
2022/03/19 06:26:36;;;;;;;51.60;32.07;;;;;;;;;;5092568;28;20446;-69
2022/03/19 06:29:04;;;;;;;58.27;31.03;;;;;;;;;;5092272;28;20478;-69
2022/03/19 06:31:31;;;;;;;59.87;30.77;;;;;;;;;;5092457;28;20943;-68
2022/03/19 06:33:58;;;;;;;48.93;30.10;;;;;;;;;;5094952;28;20453;-69
2022/03/19 06:39:12;;;;;;;43.40;27.20;;;;;;;;;;5095944;28;20438;-69
2022/03/19 06:41:39;;;;;;;47.97;29.43;;;;;;;;;;5095576;28;20575;-69
2022/03/19 06:44:06;;;;;;;43.73;26.50;;;;;;;;;;5095612;28;20454;-69
2022/03/19 06:46:34;;;;;;;42.07;28.47;;;;;;;;;;5095858;28;20446;-69
2022/03/19 06:49:01;;;;;;;51.13;30.47;;;;;;;;;;5095464;28;20498;-70
2022/03/19 06:51:28;;;;;;;42.07;28.57;;;;;;;;;;5095798;28;20450;-69
2022/03/19 06:53:55;;;;;;;45.50;28.00;;;;;;;;;;5095553;28;20446;-70
2022/03/19 06:56:23;;;;;;;41.10;27.53;;;;;;;;;;5095552;28;20483;-69
2022/03/19 06:58:50;;;;;;;39.83;28.30;;;;;;;;;;5095642;28;20487;-69
2022/03/19 07:01:17;;;;;;;50.47;28.17;;;;;;;;;;5095592;28;20450;-70
2022/03/19 07:03:45;;;;;;;40.93;26.40;;;;;;;;;;5095239;28;20454;-70
2022/03/19 07:06:12;;;;;;;40.33;26.90;;;;;;;;;;5095452;28;20827;-69
2022/03/19 07:08:39;;;;;;;42.60;27.10;;;;;;;;;;5095382;28;20467;-69
2022/03/19 07:11:06;;;;;;;39.57;27.77;;;;;;;;;;5095505;28;20959;-69
2022/03/19 07:13:35;;;;;;;34.80;26.27;;;;;;;;;;5095377;28;20951;-70
2022/03/19 07:16:02;;;;;;;44.90;28.83;;;;;;;;;;5095225;28;20482;-70
2022/03/19 07:18:29;;;;;;;41.07;26.77;;;;;;;;;;5095262;28;20855;-69
2022/03/19 07:20:56;;;;;;;35.17;25.43;;;;;;;;;;5095390;28;20462;-69
2022/03/19 07:23:23;;;;;;;37.73;25.83;;;;;;;;;;5089597;28;20951;-70
2022/03/19 07:25:50;;;;;;;37.13;24.77;;;;;;;;;;5093415;28;20447;-70
2022/03/19 07:28:18;;;;;;;37.63;24.80;;;;;;;;;;5093160;28;20482;-71
2022/03/19 07:30:47;;;;;;;37.20;23.90;;;;;;;;;;5093429;28;20955;-71
2022/03/19 07:33:15;;;;;;;34.07;26.60;;;;;;;;;;5093569;28;20478;-70
2022/03/19 07:35:42;;;;;;;34.73;22.30;;;;;;;;;;5093340;28;20481;-70
2022/03/19 07:38:10;;;;;;;39.07;23.33;;;;;;;;;;5093011;28;20485;-70
2022/03/19 07:43:23;;;;;;;41.00;24.23;;;;;;;;;;5093270;28;20422;-71
2022/03/19 07:45:52;;;;;;;35.57;23.27;;;;;;;;;;5093573;28;20462;-70
2022/03/19 07:48:19;;;;;;;41.50;25.87;;;;;;;;;;5094432;28;20486;-70
2022/03/19 07:50:46;;;;;;;38.90;26.10;;;;;;;;;;5092354;28;20482;-70
2022/03/19 07:53:13;;;;;;;40.53;25.83;;;;;;;;;;5093172;28;20451;-71
2022/03/19 07:55:41;;;;;;;37.47;26.50;;;;;;;;;;5092974;28;20821;-70
2022/03/19 07:58:08;;;;;;;66.37;34.10;;;;;;;;;;5092913;28;20478;-70
2022/03/19 08:00:36;;;;;;;41.97;24.60;;;;;;;;;;5093063;28;20537;-70
2022/03/19 08:03:05;;;;;;;40.93;25.80;;;;;;;;;;5092838;28;20443;-70
2022/03/19 08:05:32;;;;;;;54.23;26.03;;;;;;;;;;5092731;28;20974;-70
2022/03/19 08:07:59;;;;;;;38.23;24.97;;;;;;;;;;5092889;28;20473;-71
2022/03/19 08:10:26;;;;;;;36.83;23.40;;;;;;;;;;5092515;28;20447;-70
2022/03/19 08:12:57;;;;;;;42.80;26.60;;;;;;;;;;5112882;28;20454;-70
2022/03/19 08:15:24;;;;;;;40.00;24.80;;;;;;;;;;5113015;28;20446;-71
2022/03/19 08:17:51;;;;;;;36.20;24.53;;;;;;;;;;5112922;28;20473;-70
2022/03/19 08:20:20;;;;;;;35.40;25.33;;;;;;;;;;5112981;28;20953;-70
2022/03/19 08:22:47;;;;;;;48.80;28.17;;;;;;;;;;5112822;28;20957;-70
2022/03/19 08:25:14;;;;;;;51.83;29.83;;;;;;;;;;5112896;28;20446;-70
2022/03/19 08:27:41;;;;;;;35.53;25.10;;;;;;;;;;5112596;28;20509;-70
2022/03/19 08:30:09;;;;;;;36.40;22.60;;;;;;;;;;5112788;28;20464;-71
2022/03/19 08:32:36;;;;;;;32.13;20.60;;;;;;;;;;5112947;28;20457;-71
2022/03/19 08:35:03;;;;;;;38.33;25.20;;;;;;;;;;5112199;28;20481;-71
2022/03/19 08:37:32;;;;;;;36.07;22.63;;;;;;;;;;5112581;28;20489;-71
2022/03/19 08:40:17;;;;;;;32.47;21.80;;;;;;;;;;5112080;28;20507;-71
2022/03/19 08:42:45;;;;;;;31.50;21.60;;;;;;;;;;5113503;28;20533;-70
2022/03/19 08:45:12;;;;;;;29.13;19.77;;;;;;;;;;5113977;28;20450;-69
2022/03/19 08:47:40;;;;;;;38.50;21.63;;;;;;;;;;5113448;28;20474;-70
2022/03/19 08:50:08;;;;;;;35.80;22.30;;;;;;;;;;5113940;28;20450;-69
2022/03/19 08:52:37;;;;;;;31.73;23.60;;;;;;;;;;5113822;28;20449;-69
2022/03/19 08:55:04;;;;;;;36.37;22.53;;;;;;;;;;5113531;27;20450;-69
2022/03/19 08:57:32;;;;;;;40.80;25.37;;;;;;;;;;5112686;28;21014;-69
2022/03/19 08:59:59;;;;;;;52.03;21.67;;;;;;;;;;5113027;28;20540;-70
2022/03/19 09:02:26;;;;;;;36.93;19.67;;;;;;;;;;5112295;28;20453;-71
2022/03/19 09:04:53;;;;;;;38.00;23.80;;;;;;;;;;5113194;28;20813;-69
2022/03/19 09:07:20;;;;;;;37.80;23.70;;;;;;;;;;5113593;28;20476;-69
2022/03/19 09:09:52;;;;;;;36.47;24.73;;;;;;;;;;5113594;28;20836;-69
2022/03/19 09:12:21;;;;;;;32.80;21.73;;;;;;;;;;5113574;28;20457;-70
2022/03/19 09:14:48;;;;;;;39.07;22.90;;;;;;;;;;5113245;28;20454;-69
2022/03/19 09:17:15;;;;;;;31.07;23.60;;;;;;;;;;5113376;28;20486;-69
2022/03/19 09:19:43;;;;;;;31.63;22.73;;;;;;;;;;5113504;28;20453;-69
2022/03/19 09:22:10;;;;;;;32.67;18.70;;;;;;;;;;5113518;28;20457;-69
2022/03/19 09:24:37;;;;;;;46.63;27.07;;;;;;;;;;5113393;28;20902;-69
2022/03/19 09:27:06;;;;;;;39.70;27.07;;;;;;;;;;5113172;28;20449;-70
2022/03/19 09:29:33;;;;;;;41.50;24.87;;;;;;;;;;5113319;28;20476;-69
2022/03/19 09:32:00;;;;;;;43.60;26.07;;;;;;;;;;5113206;28;20876;-69
2022/03/19 09:34:27;;;;;;;33.47;23.83;;;;;;;;;;5113241;28;20453;-69
2022/03/19 09:36:54;;;;;;;36.63;26.57;;;;;;;;;;5113006;28;20488;-69
2022/03/19 09:39:21;;;;;;;34.30;22.57;;;;;;;;;;5113515;28;20445;-69
2022/03/19 09:41:48;;;;;;;38.77;25.80;;;;;;;;;;5112773;28;20806;-70
2022/03/19 09:44:17;;;;;;;39.43;24.37;;;;;;;;;;5113068;28;20532;-70
2022/03/19 09:46:46;;;;;;;39.87;24.67;;;;;;;;;;5113283;28;20445;-70
2022/03/19 09:49:13;;;;;;;38.90;25.60;;;;;;;;;;5112950;28;20480;-69
2022/03/19 09:51:44;;;;;;;38.83;24.07;;;;;;;;;;5113367;28;20802;-69
2022/03/19 09:54:11;;;;;;;31.10;20.87;;;;;;;;;;5112988;28;20481;-69
2022/03/19 09:56:38;;;;;;;43.10;27.43;;;;;;;;;;5113121;28;20899;-69
2022/03/19 09:59:06;;;;;;;28.43;17.80;;;;;;;;;;5113095;28;20898;-69
2022/03/19 10:01:38;;;;;;;33.77;23.27;;;;;;;;;;5113233;28;20461;-69
2022/03/19 10:04:07;;;;;;;42.47;28.77;;;;;;;;;;5112879;28;20464;-69
2022/03/19 10:09:20;;;;;;;37.87;24.50;;;;;;;;;;5116748;28;20421;-69
2022/03/19 10:11:49;;;;;;;37.13;24.30;;;;;;;;;;5116813;28;20449;-69
2022/03/19 10:14:20;;;;;;;42.93;26.60;;;;;;;;;;5116760;28;20445;-69
2022/03/19 10:16:51;;;;;;;38.77;26.53;;;;;;;;;;5116782;28;20547;-69
2022/03/19 10:19:18;;;;;;;28.00;19.57;;;;;;;;;;5116798;28;20450;-70
2022/03/19 10:21:45;;;;;;;39.60;25.87;;;;;;;;;;5116728;28;20800;-70
2022/03/19 10:24:21;;;;;;;44.10;29.47;;;;;;;;;;5116365;28;20456;-69
2022/03/19 10:26:49;;;;;;;43.57;28.03;;;;;;;;;;5116413;28;20465;-70
2022/03/19 10:29:22;;;;;;;47.70;31.87;;;;;;;;;;5116442;28;20875;-69
2022/03/19 10:31:50;;;;;;;47.50;29.93;;;;;;;;;;5116527;28;20949;-69
2022/03/19 10:34:18;;;;;;;44.10;28.67;;;;;;;;;;5116297;28;20989;-69
2022/03/19 10:36:46;;;;;;;41.57;29.30;;;;;;;;;;5116339;27;20533;-70
2022/03/19 10:39:13;;;;;;;42.80;27.30;;;;;;;;;;5116462;28;20476;-69
2022/03/19 10:41:41;;;;;;;44.87;30.53;;;;;;;;;;5116256;28;20965;-69
2022/03/19 10:44:12;;;;;;;45.93;27.87;;;;;;;;;;5115978;27;20805;-69
2022/03/19 10:46:39;;;;;;;43.40;28.10;;;;;;;;;;5116228;28;21031;-69
2022/03/19 10:49:14;;;;;;;38.70;25.67;;;;;;;;;;5115981;28;20485;-69
2022/03/19 10:51:44;;;;;;;32.80;22.73;;;;;;;;;;5116287;28;20448;-68
2022/03/19 10:54:14;;;;;;;49.40;32.57;;;;;;;;;;5115975;28;20451;-69
2022/03/19 10:56:41;;;;;;;42.00;28.70;;;;;;;;;;5115943;27;20491;-69
2022/03/19 10:59:08;;;;;;;54.73;31.10;;;;;;;;;;5115806;28;20489;-69
2022/03/19 11:01:36;;;;;;;49.33;32.40;;;;;;;;;;5115897;27;20461;-69
2022/03/19 11:04:04;;;;;;;42.17;25.93;;;;;;;;;;5115740;28;20453;-69
2022/03/19 11:06:33;;;;;;;46.07;31.17;;;;;;;;;;5114044;28;20438;-69
2022/03/19 11:09:05;;;;;;;44.93;31.97;;;;;;;;;;5115121;28;20477;-69
2022/03/19 11:11:33;;;;;;;42.33;26.30;;;;;;;;;;5115680;28;20446;-70
2022/03/19 11:14:03;;;;;;;41.57;30.67;;;;;;;;;;5115375;28;20452;-70
2022/03/19 11:16:32;;;;;;;47.60;31.50;;;;;;;;;;5116017;28;20900;-69
2022/03/19 11:19:00;;;;;;;56.10;32.30;;;;;;;;;;5114316;28;20478;-70
2022/03/19 11:21:28;;;;;;;52.27;31.67;;;;;;;;;;5115508;28;20823;-69
2022/03/19 11:23:58;;;;;;;45.80;31.33;;;;;;;;;;5115178;28;20446;-70
2022/03/19 11:26:27;;;;;;;41.97;25.47;;;;;;;;;;5115504;28;20453;-69
2022/03/19 11:28:55;;;;;;;44.23;31.33;;;;;;;;;;5115090;28;20466;-69
2022/03/19 11:31:27;;;;;;;39.17;28.30;;;;;;;;;;5115271;28;20454;-69
2022/03/19 11:33:57;;;;;;;47.83;30.60;;;;;;;;;;5115085;28;20943;-69
2022/03/19 11:36:24;;;;;;;44.93;28.83;;;;;;;;;;5115433;28;20540;-69
2022/03/19 11:38:52;;;;;;;36.30;25.20;;;;;;;;;;5115114;28;20481;-69
2022/03/19 11:41:23;;;;;;;43.30;28.53;;;;;;;;;;5114899;28;20449;-69
2022/03/19 11:43:50;;;;;;;39.13;28.30;;;;;;;;;;5115087;27;20508;-69
2022/03/19 11:46:18;;;;;;;45.00;30.60;;;;;;;;;;5115196;28;20450;-69
2022/03/19 11:48:50;;;;;;;42.33;27.10;;;;;;;;;;5114885;28;20855;-70
2022/03/19 11:51:17;;;;;;;40.07;28.50;;;;;;;;;;5115069;28;20449;-69
2022/03/19 11:53:51;;;;;;;35.87;25.67;;;;;;;;;;5114817;28;20518;-70
2022/03/19 11:56:19;;;;;;;47.60;29.17;;;;;;;;;;5114961;28;20446;-69
2022/03/19 11:58:48;;;;;;;34.20;22.93;;;;;;;;;;5114770;28;20509;-70
2022/03/19 12:01:15;;;;;;;44.47;29.03;;;;;;;;;;5114770;28;20457;-71
2022/03/19 12:04:06;;;;;;;46.53;29.67;;;;;;;;;;5114625;27;20445;-69
2022/03/19 12:06:36;;;;;;;42.63;29.30;;;;;;;;;;5099363;28;20460;-69
2022/03/19 12:09:04;;;;;;;43.90;29.10;;;;;;;;;;5114553;28;20565;-70
2022/03/19 12:11:32;;;;;;;37.90;25.60;;;;;;;;;;5114566;28;20988;-70
2022/03/19 12:14:01;;;;;;;36.03;22.57;;;;;;;;;;5114182;28;20453;-69
2022/03/19 12:16:41;;;;;;;37.03;25.40;;;;;;;;;;5114521;28;20854;-69
2022/03/19 12:19:09;;;;;;;44.93;24.90;;;;;;;;;;5114237;28;20461;-69
2022/03/19 12:21:37;;;;;;;33.07;22.50;;;;;;;;;;5114408;28;20453;-69
2022/03/19 12:24:20;;;;;;;43.17;28.87;;;;;;;;;;5114034;28;20922;-69
2022/03/19 12:26:49;;;;;;;37.50;28.70;;;;;;;;;;5114124;28;20454;-69
2022/03/19 12:29:18;;;;;;;41.60;30.70;;;;;;;;;;5114308;28;21099;-70
2022/03/19 12:31:46;;;;;;;41.83;28.13;;;;;;;;;;5113935;28;20449;-70
2022/03/19 12:34:17;;;;;;;41.03;30.87;;;;;;;;;;5113894;28;20445;-69
2022/03/19 12:36:44;;;;;;;38.43;28.03;;;;;;;;;;5113778;28;20452;-70
2022/03/19 12:39:12;;;;;;;47.87;30.70;;;;;;;;;;5113670;28;20461;-70
2022/03/19 12:41:39;;;;;;;39.17;27.10;;;;;;;;;;5113532;28;20638;-69
2022/03/19 12:44:07;;;;;;;39.83;30.13;;;;;;;;;;5113679;28;20449;-69
2022/03/19 12:46:37;;;;;;;47.10;31.43;;;;;;;;;;5105414;28;20544;-70
2022/03/19 12:49:05;;;;;;;40.47;29.10;;;;;;;;;;5093123;28;20482;-70
2022/03/19 12:51:33;;;;;;;36.27;25.50;;;;;;;;;;5093410;28;20446;-69
2022/03/19 12:54:00;;;;;;;43.63;30.13;;;;;;;;;;5093163;28;20462;-70
2022/03/19 12:56:28;;;;;;;36.50;25.90;;;;;;;;;;5093500;28;20847;-69
2022/03/19 12:58:56;;;;;;;36.80;26.33;;;;;;;;;;5093228;28;20514;-69
2022/03/19 13:01:26;;;;;;;39.73;24.60;;;;;;;;;;5093360;28;20457;-69
2022/03/19 13:03:55;;;;;;;46.70;28.37;;;;;;;;;;5093099;28;20465;-69
2022/03/19 13:06:30;;;;;;;46.13;28.93;;;;;;;;;;5093188;28;20538;-69
2022/03/19 13:08:57;;;;;;;32.90;21.97;;;;;;;;;;5093063;28;20493;-69
2022/03/19 13:11:24;;;;;;;38.30;24.63;;;;;;;;;;5093418;28;20446;-69
2022/03/19 13:13:51;;;;;;;36.47;22.17;;;;;;;;;;5092786;28;20468;-69
2022/03/19 13:16:29;;;;;;;35.30;24.73;;;;;;;;;;5092971;28;20478;-70
2022/03/19 13:19:01;;;;;;;21.03;13.63;;;;;;;;;;5092795;28;20517;-70
2022/03/19 13:21:28;;;;;;;35.70;24.50;;;;;;;;;;5093226;28;20944;-69
2022/03/19 13:23:58;;;;;;;35.50;24.57;;;;;;;;;;5092797;28;20447;-69
2022/03/19 13:26:26;;;;;;;31.30;18.47;;;;;;;;;;5093025;28;20505;-69
2022/03/19 13:28:59;;;;;;;39.90;24.63;;;;;;;;;;5092756;28;20469;-70
2022/03/19 13:31:26;;;;;;;30.17;16.73;;;;;;;;;;5093256;28;20572;-69
2022/03/19 13:33:59;;;;;;;38.70;24.17;;;;;;;;;;5092796;28;20451;-69
2022/03/19 13:36:29;;;;;;;37.73;24.83;;;;;;;;;;5093398;28;20447;-69
2022/03/19 13:38:58;;;;;;;36.93;24.50;;;;;;;;;;5092741;28;20523;-69
2022/03/19 13:41:25;;;;;;;35.17;22.20;;;;;;;;;;5092486;28;20490;-69
2022/03/19 13:43:53;;;;;;;36.13;23.70;;;;;;;;;;5095845;28;20457;-69
2022/03/19 13:46:22;;;;;;;28.87;17.17;;;;;;;;;;5097116;28;20846;-69
2022/03/19 13:48:50;;;;;;;31.90;18.97;;;;;;;;;;5096818;28;20900;-69
2022/03/19 13:51:17;;;;;;;23.73;14.70;;;;;;;;;;5097054;28;20858;-69
2022/03/19 13:53:47;;;;;;;35.20;24.13;;;;;;;;;;5096780;28;20446;-70
2022/03/19 13:56:14;;;;;;;35.70;21.83;;;;;;;;;;5096770;28;20465;-69
2022/03/19 13:58:41;;;;;;;35.77;21.30;;;;;;;;;;5096686;28;20490;-69
2022/03/19 14:01:12;;;;;;;33.57;21.80;;;;;;;;;;5096660;28;20478;-69
2022/03/19 14:03:40;;;;;;;20.97;14.30;;;;;;;;;;5096526;28;20501;-69
2022/03/19 14:06:08;;;;;;;34.57;21.30;;;;;;;;;;5096458;28;20453;-69
2022/03/19 14:08:37;;;;;;;39.07;22.77;;;;;;;;;;5096407;28;20851;-69
2022/03/19 14:11:12;;;;;;;38.47;22.83;;;;;;;;;;5098685;28;20961;-69
2022/03/19 14:13:42;;;;;;;32.83;16.67;;;;;;;;;;5115321;28;20824;-70
2022/03/19 14:16:10;;;;;;;24.47;16.57;;;;;;;;;;5115265;28;20859;-70
2022/03/19 14:18:39;;;;;;;38.20;20.93;;;;;;;;;;5115022;27;20496;-69
2022/03/19 14:21:08;;;;;;;33.00;20.83;;;;;;;;;;5115205;28;20453;-70
2022/03/19 14:23:36;;;;;;;27.87;19.07;;;;;;;;;;5115195;28;20454;-69
2022/03/19 14:26:03;;;;;;;32.53;21.90;;;;;;;;;;5115075;28;20452;-69
2022/03/19 14:28:32;;;;;;;33.20;22.33;;;;;;;;;;5115133;28;20510;-70
2022/03/19 14:31:00;;;;;;;32.17;21.93;;;;;;;;;;5114852;28;20481;-70
2022/03/19 14:33:28;;;;;;;31.87;18.47;;;;;;;;;;5114786;28;20932;-70
2022/03/19 14:35:56;;;;;;;32.20;21.97;;;;;;;;;;5115376;28;20461;-69
2022/03/19 14:38:24;;;;;;;42.27;22.00;;;;;;;;;;5114929;27;20864;-69